Terminal Aerodrome Forecast
Issued by NWS Albany, NY

Home | Current Version | Previous Version | Text Only | Print | Product List | Glossary On
Versions: 1 2 3 4 5 6 7 8 9 10 11 12 13 14
301
FTUS41 KALY 301729
TAFGFL
TAF
KGFL 301729Z 3018/0118 10003KT P6SM SKC
     FM302000 VRB03KT P6SM BKN250
     FM010200 00000KT P6SM BKN060 OVC200
     FM010700 00000KT P6SM SCT035 OVC060
     FM011500 15005KT 3SM -RA BR OVC025=

USA.gov is the U.S. government's official web portal to all federal, state and local government web resources and services.